Time;durP1;ratioP1;P1;durP2;ratioP2;P2;SDS_P1;SDS_P2;PMS_P1;PMS_P2;Temp;Humidity;BMP_temperature;BMP_pressure;BME280_temperature;BME280_humidity;BME280_pressure;Samples;Min_cycle;Max_cycle;Signal;HPM_P1;HPM_P2
2022/02/10 00:06:35;;;;;;;15.63;6.70;;;4.80;99.90;;;;;;5052073;28;20071;-53
2022/02/10 00:17:13;;;;;;;13.23;6.05;;;4.80;99.90;;;;;;5052406;28;20595;-52
2022/02/10 00:19:49;;;;;;;12.73;6.18;;;4.70;99.90;;;;;;5064449;28;20618;-55
2022/02/10 00:22:27;;;;;;;12.13;5.68;;;4.70;99.90;;;;;;5068979;28;20070;-53
2022/02/10 00:35:53;;;;;;;12.45;5.93;;;4.60;99.90;;;;;;5069648;28;20038;-52
2022/02/10 00:38:22;;;;;;;8.85;5.07;;;4.60;99.90;;;;;;5056678;28;20063;-52
2022/02/10 00:40:48;;;;;;;10.43;5.43;;;4.60;99.90;;;;;;5065645;28;20391;-52
2022/02/10 00:43:14;;;;;;;11.82;5.78;;;4.60;99.90;;;;;;5069007;28;20025;-54
2022/02/10 00:45:39;;;;;;;13.20;6.07;;;4.60;99.90;;;;;;5068558;28;20034;-55
2022/02/10 00:48:08;;;;;;;12.63;5.95;;;4.70;99.90;;;;;;5069576;28;20028;-54
2022/02/10 00:50:36;;;;;;;16.75;6.65;;;4.60;99.90;;;;;;5068450;28;20040;-53
2022/02/10 00:55:41;;;;;;;11.90;5.82;;;4.70;99.90;;;;;;5067348;28;20035;-53
2022/02/10 00:58:10;;;;;;;11.45;6.13;;;4.70;99.90;;;;;;5068905;28;20032;-53
2022/02/10 01:30:12;;;;;;;15.05;6.85;;;4.70;99.90;;;;;;5058518;28;20059;-52
2022/02/10 01:32:38;;;;;;;13.45;8.10;;;4.80;99.90;;;;;;5059836;28;20051;-52
2022/02/10 01:35:07;;;;;;;14.25;7.30;;;4.80;99.90;;;;;;5049193;28;20100;-52
2022/02/10 01:37:35;;;;;;;19.15;6.60;;;4.80;99.90;;;;;;5058075;28;20388;-55
2022/02/10 01:40:09;;;;;;;12.88;7.45;;;4.80;99.90;;;;;;5060736;28;20064;-55
2022/02/10 02:04:17;;;;;;;21.40;10.18;;;5.00;99.90;;;;;;5062893;28;20185;-52
2022/02/10 02:06:46;;;;;;;16.92;9.43;;;5.00;99.90;;;;;;5076262;28;20107;-52
2022/02/10 02:09:15;;;;;;;19.48;10.52;;;4.90;99.90;;;;;;5063222;28;20032;-55
2022/02/10 02:11:42;;;;;;;27.63;10.68;;;5.00;99.90;;;;;;5072217;28;20055;-52
2022/02/10 02:14:11;;;;;;;17.52;10.60;;;5.00;99.90;;;;;;5071939;28;20093;-56
2022/02/10 02:16:45;;;;;;;18.77;9.48;;;5.00;99.90;;;;;;5052673;28;20449;-56
2022/02/10 02:19:11;;;;;;;16.02;9.80;;;5.00;99.90;;;;;;5071232;28;20039;-54
2022/02/10 02:21:39;;;;;;;20.65;11.15;;;5.00;99.90;;;;;;5054152;28;20505;-53
2022/02/10 02:24:06;;;;;;;16.42;10.00;;;5.00;99.90;;;;;;5068414;28;20573;-55
2022/02/10 02:26:33;;;;;;;16.90;10.07;;;5.00;99.90;;;;;;5066553;28;20063;-52
2022/02/10 02:29:01;;;;;;;24.55;11.20;;;5.10;99.90;;;;;;5052430;28;20155;-54
2022/02/10 02:31:39;;;;;;;24.50;10.93;;;5.10;99.90;;;;;;5051678;28;20029;-52
2022/02/10 02:37:34;;;;;;;22.67;11.07;;;5.10;99.90;;;;;;5063404;28;20043;-53
2022/02/10 03:06:34;;;;;;;19.63;9.77;;;5.20;99.90;;;;;;5051388;28;20451;-54
2022/02/10 03:09:06;;;;;;;33.20;11.95;;;5.20;99.90;;;;;;5051681;28;20108;-55
2022/02/10 03:11:34;;;;;;;15.35;9.02;;;5.20;99.90;;;;;;5051461;28;20457;-53
2022/02/10 03:14:07;;;;;;;22.15;10.45;;;5.20;99.90;;;;;;5032882;28;20038;-52
2022/02/10 03:19:53;;;;;;;21.92;9.45;;;5.20;99.90;;;;;;5049629;28;20075;-53
2022/02/10 04:01:24;;;;;;;16.08;6.43;;;5.20;99.90;;;;;;5038193;28;20032;-51
2022/02/10 04:06:23;;;;;;;12.32;5.63;;;5.20;99.90;;;;;;5030455;28;20031;-50
2022/02/10 04:09:14;;;;;;;9.85;5.72;;;5.20;99.90;;;;;;5045384;28;20017;-54
2022/02/10 04:17:06;;;;;;;8.95;4.65;;;5.10;99.90;;;;;;5038898;28;20029;-55
2022/02/10 04:23:11;;;;;;;8.25;4.68;;;5.10;99.90;;;;;;5047928;28;20677;-51
2022/02/10 04:28:24;;;;;;;8.45;5.10;;;5.10;99.90;;;;;;4949188;29;20039;-55
2022/02/10 04:45:33;;;;;;;6.22;3.92;;;5.10;99.90;;;;;;5041001;28;20443;-57
2022/02/10 05:00:41;;;;;;;8.35;4.88;;;5.10;99.90;;;;;;4987050;28;20040;-50
2022/02/10 05:15:18;;;;;;;12.63;6.63;;;5.10;99.90;;;;;;5045020;28;20136;-54
2022/02/10 05:17:16;;;;;;;12.35;6.70;;;5.10;99.90;;;;;;5012546;28;20171;-55
2022/02/10 05:33:14;;;;;;;11.10;6.82;;;5.10;99.90;;;;;;5051828;28;20036;-52
2022/02/10 05:35:44;;;;;;;14.25;7.00;;;5.10;99.90;;;;;;5033311;28;20025;-54
2022/02/10 05:38:18;;;;;;;13.73;7.80;;;5.10;99.90;;;;;;5046872;28;20108;-58
2022/02/10 05:51:46;;;;;;;14.48;6.97;;;5.20;99.90;;;;;;5032765;28;20476;-54
2022/02/10 06:53:37;;;;;;;10.63;6.18;;;5.20;99.90;;;;;;5038229;28;20476;-55
2022/02/10 07:12:05;;;;;;;7.22;4.60;;;5.10;99.90;;;;;;5032074;28;20530;-53
2022/02/10 08:00:07;;;;;;;10.90;6.05;;;5.30;99.90;;;;;;5050479;28;20025;-54
2022/02/10 08:49:44;;;;;;;10.05;6.57;;;5.50;99.90;;;;;;5030520;28;20083;-52
2022/02/10 09:20:04;;;;;;;8.48;6.00;;;5.90;99.90;;;;;;5010133;28;20044;-52
2022/02/10 09:55:18;;;;;;;16.05;8.73;;;6.30;99.90;;;;;;5009687;28;20501;-54
2022/02/10 10:02:50;;;;;;;15.15;8.25;;;6.30;99.90;;;;;;5013105;28;20058;-52
2022/02/10 10:05:43;;;;;;;10.85;8.07;;;6.30;99.90;;;;;;5012898;28;20413;-52
2022/02/10 10:08:20;;;;;;;13.63;8.52;;;6.30;99.90;;;;;;5012372;28;20150;-52
2022/02/10 10:11:11;;;;;;;16.75;9.20;;;6.30;99.90;;;;;;5013160;28;20033;-53
2022/02/10 10:13:54;;;;;;;16.30;8.05;;;6.30;99.90;;;;;;5011623;28;20040;-52
2022/02/10 10:16:49;;;;;;;14.02;8.23;;;6.40;99.90;;;;;;5012958;28;20109;-53
2022/02/10 10:19:16;;;;;;;10.20;7.13;;;6.40;99.90;;;;;;5014285;28;20034;-52
2022/02/10 10:21:50;;;;;;;16.60;7.78;;;6.50;99.90;;;;;;5012730;28;20032;-54
2022/02/10 10:27:11;;;;;;;13.48;8.38;;;6.60;99.90;;;;;;5012704;28;20022;-53
2022/02/10 10:57:33;;;;;;;13.27;6.57;;;6.80;99.90;;;;;;5026247;28;20022;-53
2022/02/10 11:40:07;;;;;;;8.52;5.95;;;7.30;99.90;;;;;;5010666;28;20110;-54
2022/02/10 12:34:09;;;;;;;4.60;2.55;;;7.40;99.90;;;;;;5021288;28;20030;-55
2022/02/10 12:43:52;;;;;;;9.57;3.35;;;7.20;99.90;;;;;;5009515;28;20497;-52
2022/02/10 14:28:22;;;;;;;9.27;1.52;;;7.00;99.90;;;;;;5011182;28;20077;-52
2022/02/10 14:30:52;;;;;;;11.02;2.75;;;6.90;99.90;;;;;;5029373;28;20025;-55
2022/02/10 14:33:24;;;;;;;9.65;2.30;;;6.90;99.90;;;;;;5012055;28;20084;-50
2022/02/10 16:12:55;;;;;;;11.40;2.83;;;5.40;99.90;;;;;;5030506;28;20036;-54
2022/02/10 16:17:35;;;;;;;7.15;3.10;;;5.40;99.90;;;;;;5030284;28;20441;-52
2022/02/10 16:20:07;;;;;;;16.92;4.25;;;5.30;99.90;;;;;;5012396;28;20021;-52
2022/02/10 16:22:38;;;;;;;12.70;4.72;;;5.30;99.90;;;;;;5030036;28;20034;-54
2022/02/10 16:25:07;;;;;;;10.50;6.88;;;5.30;99.90;;;;;;5029822;28;20025;-53
2022/02/10 16:27:35;;;;;;;7.10;3.00;;;5.30;99.90;;;;;;5012266;28;20030;-54
2022/02/10 16:30:10;;;;;;;9.68;1.95;;;5.20;99.90;;;;;;5029839;28;20075;-51
2022/02/10 16:32:35;;;;;;;10.68;3.60;;;5.20;99.90;;;;;;5029239;28;20061;-51
2022/02/10 16:35:03;;;;;;;15.68;10.55;;;5.20;99.90;;;;;;5029278;28;20064;-52
2022/02/10 16:37:29;;;;;;;10.70;2.92;;;5.20;99.90;;;;;;5029847;28;20112;-54
2022/02/10 16:39:54;;;;;;;16.80;11.73;;;5.20;99.90;;;;;;5029465;28;20063;-53
2022/02/10 16:42:20;;;;;;;17.92;9.48;;;5.20;99.90;;;;;;5029250;28;20393;-51
2022/02/10 16:44:47;;;;;;;9.60;4.18;;;5.20;99.90;;;;;;5029695;28;20557;-53
2022/02/10 16:47:14;;;;;;;10.63;7.10;;;5.20;99.90;;;;;;5029868;28;20028;-53
2022/02/10 16:49:46;;;;;;;12.70;6.97;;;5.10;99.90;;;;;;5030064;28;20025;-53
2022/02/10 16:52:19;;;;;;;65.50;38.05;;;5.10;99.90;;;;;;5028269;28;20540;-51
2022/02/10 16:54:46;;;;;;;25.30;16.17;;;5.10;99.90;;;;;;5029514;28;20024;-56
2022/02/10 16:57:24;;;;;;;28.42;15.90;;;5.10;99.90;;;;;;5029824;28;20018;-50
2022/02/10 17:00:05;;;;;;;27.13;15.93;;;5.10;99.90;;;;;;5029542;28;20029;-54
2022/02/10 17:17:11;;;;;;;10.90;2.22;;;4.90;99.90;;;;;;5029592;28;20060;-52
2022/02/10 17:19:08;;;;;;;8.75;2.25;;;4.80;99.90;;;;;;5029418;28;20619;-54
2022/02/10 17:27:27;;;;;;;6.30;2.08;;;4.70;99.90;;;;;;5029923;28;19912;-53
2022/02/10 17:31:03;;;;;;;10.85;2.10;;;4.70;99.90;;;;;;5028711;28;20251;-52
2022/02/10 17:33:03;;;;;;;8.85;2.25;;;4.70;99.90;;;;;;5019640;28;20061;-53
2022/02/10 17:54:11;;;;;;;10.27;2.75;;;4.40;99.90;;;;;;5048200;28;20365;-53
2022/02/10 17:56:38;;;;;;;9.52;3.40;;;4.40;99.90;;;;;;5031331;28;20048;-55
2022/02/10 17:59:05;;;;;;;11.80;2.58;;;4.30;99.90;;;;;;5031184;28;20028;-53
2022/02/10 18:01:31;;;;;;;11.15;2.67;;;4.30;99.90;;;;;;5048945;28;20060;-54
2022/02/10 18:03:57;;;;;;;11.27;3.40;;;4.30;99.90;;;;;;5048988;28;20473;-54
2022/02/10 18:06:25;;;;;;;10.40;4.55;;;4.20;99.90;;;;;;5049062;28;20036;-53
2022/02/10 18:14:17;;;;;;;15.50;6.07;;;4.10;99.90;;;;;;5048894;28;20315;-51
2022/02/10 18:16:52;;;;;;;11.90;4.55;;;4.10;99.90;;;;;;5049014;28;20025;-54
2022/02/10 18:19:24;;;;;;;14.98;4.05;;;4.10;99.90;;;;;;5051022;28;20033;-52
2022/02/10 18:27:20;;;;;;;10.00;4.03;;;4.00;99.90;;;;;;5052409;28;20021;-53
2022/02/10 18:54:25;;;;;;;16.65;7.22;;;4.00;99.90;;;;;;5052401;28;20036;-52
2022/02/10 19:06:07;;;;;;;14.77;7.07;;;3.80;99.90;;;;;;5032285;28;19940;-51
2022/02/10 19:11:13;;;;;;;16.52;6.18;;;3.70;99.90;;;;;;5031703;28;20033;-52
2022/02/10 19:13:39;;;;;;;15.23;6.07;;;3.70;99.90;;;;;;5031358;28;20112;-52
2022/02/10 19:16:05;;;;;;;17.08;8.57;;;3.70;99.90;;;;;;5031565;28;20025;-52
2022/02/10 19:18:30;;;;;;;14.77;6.18;;;3.70;99.90;;;;;;5028141;28;20045;-52
2022/02/10 19:20:56;;;;;;;9.18;4.95;;;3.70;99.90;;;;;;5017556;28;20022;-54
2022/02/10 19:23:23;;;;;;;14.80;5.18;;;3.70;99.90;;;;;;5029140;28;20536;-51
2022/02/10 19:25:49;;;;;;;15.82;5.80;;;3.70;99.90;;;;;;5024287;28;20030;-52
2022/02/10 19:28:16;;;;;;;11.25;5.38;;;3.60;99.90;;;;;;5025825;28;20026;-51
2022/02/10 19:30:44;;;;;;;5.78;3.33;;;3.60;99.90;;;;;;5026608;28;20033;-51
2022/02/10 19:33:13;;;;;;;13.23;4.95;;;3.60;99.90;;;;;;5025556;28;20500;-52
2022/02/10 19:35:45;;;;;;;7.20;3.30;;;3.60;99.90;;;;;;5031253;28;20591;-52
2022/02/10 19:38:19;;;;;;;8.85;4.32;;;3.60;99.90;;;;;;5026550;28;20021;-52
2022/02/10 19:40:50;;;;;;;9.20;4.57;;;3.60;99.90;;;;;;5029265;28;20034;-53
2022/02/10 19:43:18;;;;;;;6.72;3.15;;;3.50;99.90;;;;;;5030306;28;20381;-53
2022/02/10 19:45:44;;;;;;;27.92;10.75;;;3.50;99.90;;;;;;5029983;28;20036;-53
2022/02/10 19:48:10;;;;;;;16.27;6.53;;;3.50;99.90;;;;;;5030600;28;20029;-54
2022/02/10 19:50:36;;;;;;;9.82;3.50;;;3.50;99.90;;;;;;5028360;28;20037;-52
2022/02/10 19:53:07;;;;;;;24.42;10.23;;;3.50;99.90;;;;;;5030088;28;20151;-55
2022/02/10 19:55:35;;;;;;;17.05;6.97;;;3.40;99.90;;;;;;5029198;28;20111;-54
2022/02/10 19:58:05;;;;;;;15.45;5.65;;;3.50;99.90;;;;;;5030931;28;20389;-51
2022/02/10 20:00:38;;;;;;;16.27;5.55;;;3.50;99.90;;;;;;5029222;28;20132;-52
2022/02/10 20:03:11;;;;;;;10.00;4.82;;;3.40;99.90;;;;;;5010925;28;20282;-52
2022/02/10 20:05:37;;;;;;;5.68;2.10;;;3.40;99.90;;;;;;5012029;28;20820;-52
2022/02/10 20:08:03;;;;;;;8.70;2.33;;;3.30;99.90;;;;;;5010915;28;20117;-53
2022/02/10 20:10:29;;;;;;;7.13;2.70;;;3.40;99.90;;;;;;5011874;28;20045;-52
2022/02/10 20:12:54;;;;;;;4.30;2.58;;;3.40;99.90;;;;;;5011494;28;20037;-52
2022/02/10 20:15:22;;;;;;;9.23;3.13;;;3.30;99.90;;;;;;5010968;28;20548;-52
2022/02/10 20:17:51;;;;;;;7.93;3.17;;;3.30;99.90;;;;;;5014102;28;20095;-52
2022/02/10 20:20:16;;;;;;;5.45;2.30;;;3.30;99.90;;;;;;5019026;28;20025;-51
2022/02/10 20:22:42;;;;;;;9.45;2.75;;;3.30;99.90;;;;;;5029574;28;20072;-54
2022/02/10 20:25:09;;;;;;;12.80;2.50;;;3.20;99.90;;;;;;5030376;28;20033;-54
2022/02/10 20:27:36;;;;;;;5.43;1.70;;;3.20;99.90;;;;;;5029911;28;20029;-52
2022/02/10 20:30:03;;;;;;;7.85;2.28;;;3.20;99.90;;;;;;5030351;28;20551;-52
2022/02/10 20:32:29;;;;;;;6.82;2.35;;;3.20;99.90;;;;;;5028175;28;20094;-53
2022/02/10 20:34:55;;;;;;;5.65;1.58;;;3.20;99.90;;;;;;4992109;28;20025;-52
2022/02/10 20:37:24;;;;;;;4.70;2.05;;;3.20;99.90;;;;;;5012636;28;20054;-50
2022/02/10 20:39:50;;;;;;;5.78;1.77;;;3.20;99.90;;;;;;5026503;28;20108;-51
2022/02/10 20:42:18;;;;;;;10.30;2.55;;;3.20;99.90;;;;;;5028904;28;20516;-52
2022/02/10 20:44:48;;;;;;;11.23;2.72;;;3.20;99.90;;;;;;5025266;28;20030;-53
2022/02/10 20:47:16;;;;;;;9.95;2.65;;;3.10;99.90;;;;;;5027129;28;20029;-52
2022/02/10 20:49:42;;;;;;;10.13;2.45;;;3.20;99.90;;;;;;4992746;28;20201;-52
2022/02/10 20:52:07;;;;;;;7.63;3.00;;;3.10;99.90;;;;;;5009264;28;20166;-53
2022/02/10 20:54:33;;;;;;;10.20;2.03;;;3.10;99.90;;;;;;5090689;22;20048;-56
2022/02/10 20:56:58;;;;;;;7.78;2.22;;;3.10;99.90;;;;;;5068715;28;20039;-54
2022/02/10 20:59:37;;;;;;;8.60;3.30;;;3.10;99.90;;;;;;5069271;28;20511;-56
2022/02/10 21:02:16;;;;;;;10.43;4.43;;;3.10;99.90;;;;;;5069080;28;20535;-55
2022/02/10 21:05:00;;;;;;;13.40;3.55;;;3.20;99.90;;;;;;5049186;28;20036;-53
2022/02/10 21:12:17;;;;;;;11.35;2.80;;;3.20;99.90;;;;;;5048940;28;20040;-54
2022/02/10 21:14:43;;;;;;;6.70;2.15;;;3.20;99.90;;;;;;5048409;28;20059;-53
2022/02/10 21:17:14;;;;;;;7.72;2.88;;;3.20;99.90;;;;;;5049049;28;20017;-56
2022/02/10 21:19:42;;;;;;;7.03;2.72;;;3.20;99.90;;;;;;5049108;28;20028;-56
2022/02/10 21:22:16;;;;;;;7.80;2.13;;;3.20;99.90;;;;;;5049005;28;20701;-54
2022/02/10 21:24:48;;;;;;;11.45;2.55;;;3.10;99.90;;;;;;5049424;28;20017;-53
2022/02/10 21:30:01;;;;;;;7.28;2.53;;;3.10;99.90;;;;;;5049346;28;20028;-56
2022/02/10 21:32:30;;;;;;;11.93;2.85;;;3.10;99.90;;;;;;5048283;28;20021;-55
2022/02/10 21:37:43;;;;;;;9.77;3.25;;;3.00;99.90;;;;;;5044721;28;20191;-56
2022/02/10 21:41:17;;;;;;;3.83;1.85;;;3.00;99.90;;;;;;5045506;28;20116;-54
2022/02/10 21:44:26;;;;;;;7.72;2.40;;;3.00;99.90;;;;;;5026281;28;20095;-56
2022/02/10 21:57:02;;;;;;;8.00;1.80;;;2.80;99.90;;;;;;5052491;28;20055;-56
2022/02/10 21:59:45;;;;;;;5.53;2.28;;;2.80;99.90;;;;;;5036719;28;20025;-53
2022/02/10 22:03:25;;;;;;;13.88;2.70;;;2.70;99.90;;;;;;5034375;28;20061;-54
2022/02/10 22:21:17;;;;;;;11.02;2.85;;;2.70;99.90;;;;;;5052110;28;20718;-53
2022/02/10 22:23:46;;;;;;;5.55;2.47;;;2.70;99.90;;;;;;5051824;28;20040;-53
2022/02/10 22:26:18;;;;;;;5.32;1.98;;;2.70;99.90;;;;;;5051273;28;20378;-57
2022/02/10 22:31:29;;;;;;;18.70;2.92;;;2.70;99.90;;;;;;5052483;28;20025;-54
2022/02/10 22:36:42;;;;;;;9.38;2.53;;;2.70;99.90;;;;;;5052290;28;20396;-52
2022/02/10 22:39:09;;;;;;;11.32;2.05;;;2.70;99.90;;;;;;5052261;28;20551;-53
2022/02/10 22:41:34;;;;;;;7.40;2.75;;;2.70;99.90;;;;;;5051615;28;20485;-56
2022/02/10 22:44:01;;;;;;;7.25;2.00;;;2.70;99.90;;;;;;5050707;28;20120;-55
2022/02/10 22:46:27;;;;;;;7.45;2.47;;;2.70;99.90;;;;;;5052026;28;20039;-58
2022/02/10 22:48:53;;;;;;;6.53;2.38;;;2.70;99.90;;;;;;5051357;28;20086;-53
2022/02/10 22:51:22;;;;;;;9.80;2.30;;;2.70;99.90;;;;;;5032514;28;20041;-56
2022/02/10 22:53:48;;;;;;;7.78;2.58;;;2.70;99.90;;;;;;5049986;28;20044;-53
2022/02/10 22:56:18;;;;;;;9.40;2.63;;;2.60;99.90;;;;;;5051730;28;20074;-55
2022/02/10 22:58:44;;;;;;;6.75;2.03;;;2.70;99.90;;;;;;5051151;28;20252;-55
2022/02/10 23:01:13;;;;;;;7.75;2.70;;;2.70;99.90;;;;;;5051360;28;20072;-55
2022/02/10 23:03:41;;;;;;;9.82;2.58;;;2.60;99.90;;;;;;5051152;28;20032;-56
2022/02/10 23:06:09;;;;;;;9.95;2.95;;;2.60;99.90;;;;;;5049516;28;20036;-52
2022/02/10 23:08:35;;;;;;;7.75;2.13;;;2.60;99.90;;;;;;5051420;28;20488;-56
2022/02/10 23:11:04;;;;;;;10.18;2.30;;;2.60;99.90;;;;;;5051471;28;20048;-50
2022/02/10 23:13:32;;;;;;;7.97;2.67;;;2.50;99.90;;;;;;5049719;28;20035;-59
2022/02/10 23:16:01;;;;;;;9.98;1.75;;;2.50;99.90;;;;;;5050384;28;20047;-55
2022/02/10 23:18:29;;;;;;;7.45;2.67;;;2.60;99.90;;;;;;5051317;28;20026;-52
2022/02/10 23:20:56;;;;;;;8.50;2.35;;;2.50;99.90;;;;;;5050788;28;20475;-53
2022/02/10 23:23:23;;;;;;;9.02;2.53;;;2.50;99.90;;;;;;5050246;28;20534;-55
2022/02/10 23:25:51;;;;;;;8.93;2.97;;;2.50;99.90;;;;;;5051011;28;20033;-51
2022/02/10 23:28:23;;;;;;;11.25;2.45;;;2.50;99.90;;;;;;5050828;28;20064;-55
2022/02/10 23:30:49;;;;;;;9.10;1.90;;;2.50;99.90;;;;;;5050972;28;20443;-52
2022/02/10 23:33:23;;;;;;;5.63;1.77;;;2.50;99.90;;;;;;5050493;28;20029;-54
2022/02/10 23:38:38;;;;;;;8.82;2.40;;;2.40;99.90;;;;;;5051017;28;20086;-53
2022/02/10 23:43:50;;;;;;;7.32;2.30;;;2.40;99.90;;;;;;5050123;28;20565;-56
2022/02/10 23:46:17;;;;;;;9.95;2.13;;;2.40;99.90;;;;;;5050467;28;20025;-56
2022/02/10 23:48:43;;;;;;;9.38;2.67;;;2.40;99.90;;;;;;5050490;28;20029;-50
2022/02/10 23:51:09;;;;;;;5.25;2.10;;;2.30;99.90;;;;;;5050293;28;20024;-53
2022/02/10 23:53:35;;;;;;;9.18;2.38;;;2.30;99.90;;;;;;5049611;28;20401;-56
2022/02/10 23:56:06;;;;;;;8.27;2.72;;;2.30;99.90;;;;;;5050069;28;20021;-53
